Time;durP1;ratioP1;P1;durP2;ratioP2;P2;SDS_P1;SDS_P2;PMS_P1;PMS_P2;Temp;Humidity;BMP_temperature;BMP_pressure;BME280_temperature;BME280_humidity;BME280_pressure;Samples;Min_cycle;Max_cycle;Signal;HPM_P1;HPM_P2
2022/06/03 00:00:21;;;;;;;4.12;3.67;;;;;;;8.51;67.14;100859.80;2253047;77;21069;-72
2022/06/03 00:03:53;;;;;;;5.62;3.10;;;;;;;8.49;67.57;100864.37;2247734;77;20988;-73
2022/06/03 00:07:38;;;;;;;6.10;3.55;;;;;;;8.43;67.10;100865.41;2249667;77;21070;-73
2022/06/03 00:11:06;;;;;;;5.00;3.45;;;;;;;8.38;67.31;100861.80;2248878;77;21053;-73
2022/06/03 00:14:30;;;;;;;6.90;3.17;;;;;;;8.35;67.85;100867.85;2245298;77;20975;-73
2022/06/03 00:18:03;;;;;;;3.35;3.05;;;;;;;8.31;67.92;100865.97;2242186;78;21042;-73
2022/06/03 00:21:12;;;;;;;4.10;3.70;;;;;;;8.27;67.76;100865.87;2246037;78;21132;-80
2022/06/03 00:24:25;;;;;;;4.85;3.52;;;;;;;8.21;68.08;100865.09;2243510;78;21100;-73
2022/06/03 00:28:20;;;;;;;8.90;3.42;;;;;;;8.22;67.91;100859.68;2244433;78;21053;-72
2022/06/03 00:31:36;;;;;;;4.85;3.62;;;;;;;8.18;67.70;100857.42;2247368;78;21053;-80
2022/06/03 00:35:14;;;;;;;7.28;4.62;;;;;;;8.14;68.26;100855.54;2238872;78;21517;-73
2022/06/03 00:38:33;;;;;;;4.45;3.60;;;;;;;8.10;68.23;100852.79;2237754;78;21074;-78
2022/06/03 00:42:00;;;;;;;5.45;3.77;;;;;;;8.07;68.46;100855.70;2207273;77;20990;-75
2022/06/03 00:45:42;;;;;;;6.97;3.83;;;;;;;8.02;68.63;100850.80;2238017;78;20998;-73
2022/06/03 00:49:21;;;;;;;5.62;4.12;;;;;;;7.98;68.50;100852.05;2206268;78;21057;-73
2022/06/03 00:52:55;;;;;;;6.17;4.30;;;;;;;7.96;68.18;100847.37;2238861;78;21096;-72
2022/06/03 00:56:16;;;;;;;8.68;4.15;;;;;;;7.97;68.36;100843.78;2240358;78;21054;-74
2022/06/03 00:59:58;;;;;;;5.65;4.05;;;;;;;7.88;68.60;100858.25;2246889;78;20986;-72
2022/06/03 01:03:26;;;;;;;7.15;4.58;;;;;;;7.86;69.11;100858.40;2239149;78;21520;-73
2022/06/03 01:07:02;;;;;;;7.97;4.70;;;;;;;7.81;70.12;100868.03;2240698;78;22275;-75
2022/06/03 01:10:28;;;;;;;4.20;3.77;;;;;;;7.70;69.74;100854.89;2248357;78;20963;-73
2022/06/03 01:14:09;;;;;;;5.12;4.53;;;;;;;7.63;69.56;100862.52;2249406;77;21007;-74
2022/06/03 01:17:35;;;;;;;;;;;;;;;7.55;69.54;100863.64;2256669;77;21026;-74
2022/06/03 01:21:02;;;;;;;6.35;5.28;;;;;;;7.43;69.89;100868.60;2251661;77;20102;-73
2022/06/03 01:24:51;;;;;;;6.47;5.08;;;;;;;7.34;70.25;100875.98;2254193;77;20958;-74
2022/06/03 01:28:17;;;;;;;8.05;5.25;;;;;;;7.23;70.65;100865.47;2257005;77;21543;-73
2022/06/03 01:31:39;;;;;;;7.75;5.30;;;;;;;7.24;71.10;100861.89;2247306;77;21018;-73
2022/06/03 01:35:02;;;;;;;8.58;5.47;;;;;;;7.29;70.74;100864.95;2252816;77;21064;-73
2022/06/03 01:38:11;;;;;;;7.00;5.37;;;;;;;7.21;70.83;100860.33;2250070;77;21016;-73
2022/06/03 01:41:38;;;;;;;9.15;5.30;;;;;;;7.14;70.92;100862.62;2232224;77;21044;-73
2022/06/03 01:45:28;;;;;;;10.58;5.20;;;;;;;7.21;71.35;100858.16;2252927;77;21076;-73
2022/06/03 01:48:47;;;;;;;10.58;4.95;;;;;;;7.17;70.80;100858.89;2252830;77;20989;-74
2022/06/03 01:52:21;;;;;;;6.90;5.22;;;;;;;7.15;70.96;100859.50;2218734;77;20966;-73
2022/06/03 01:55:56;;;;;;;8.40;5.10;;;;;;;7.12;71.24;100846.09;2248272;77;21560;-75
2022/06/03 01:59:53;;;;;;;6.20;5.10;;;;;;;7.13;71.38;100854.36;2253498;77;20923;-74
2022/06/03 02:03:15;;;;;;;8.55;4.97;;;;;;;7.06;71.26;100853.17;2248076;77;21001;-73
2022/06/03 02:06:51;;;;;;;10.72;6.03;;;;;;;6.91;71.11;100849.17;2253853;77;21024;-73
2022/06/03 02:10:33;;;;;;;10.00;6.47;;;;;;;6.90;71.44;100854.93;2250586;77;21047;-73
2022/06/03 02:14:17;;;;;;;9.53;7.15;;;;;;;6.85;71.33;100866.82;2250299;77;22031;-73
2022/06/03 02:17:49;;;;;;;9.75;5.80;;;;;;;6.81;71.26;100863.57;2251963;77;20957;-73
2022/06/03 02:21:33;;;;;;;9.30;5.70;;;;;;;6.77;71.37;100863.48;2248120;77;20997;-74
2022/06/03 02:25:09;;;;;;;15.83;5.83;;;;;;;6.73;70.91;100856.30;2247617;77;21072;-72
2022/06/03 02:28:46;;;;;;;8.30;6.05;;;;;;;6.67;70.80;100859.44;2253179;77;21044;-73
2022/06/03 02:32:19;;;;;;;8.10;5.97;;;;;;;6.62;71.52;100858.13;2253147;77;21005;-73
2022/06/03 02:35:58;;;;;;;7.78;5.20;;;;;;;6.52;71.51;100863.28;2244540;77;21077;-72
2022/06/03 02:39:24;;;;;;;10.08;6.20;;;;;;;6.47;71.20;100862.32;2252956;77;21009;-74
2022/06/03 02:42:59;;;;;;;8.43;6.20;;;;;;;6.45;71.19;100863.44;2255281;77;20982;-73
2022/06/03 02:46:15;;;;;;;10.50;6.60;;;;;;;6.49;71.42;100871.44;2251976;77;21478;-75
2022/06/03 02:49:34;;;;;;;13.60;7.15;;;;;;;6.49;71.45;100864.36;2249774;77;21017;-73
2022/06/03 02:53:01;;;;;;;9.95;6.87;;;;;;;6.54;71.80;100869.28;2247955;77;21612;-74
2022/06/03 02:56:26;;;;;;;8.35;5.97;;;;;;;6.56;71.49;100867.37;2252257;77;20993;-75
2022/06/03 02:59:58;;;;;;;7.10;5.72;;;;;;;6.54;71.36;100866.65;2245767;77;22189;-74
2022/06/03 03:03:41;;;;;;;6.92;6.00;;;;;;;6.56;71.23;100875.28;2253714;77;21024;-77
2022/06/03 03:07:26;;;;;;;13.68;8.70;;;;;;;6.54;71.52;100877.68;2251762;77;21500;-73
2022/06/03 03:10:57;;;;;;;10.75;6.80;;;;;;;6.58;72.00;100871.19;2249915;77;20993;-75
2022/06/03 03:14:23;;;;;;;11.63;6.95;;;;;;;6.67;71.74;100872.62;2252834;77;21026;-73
2022/06/03 03:18:01;;;;;;;9.25;6.17;;;;;;;6.81;71.79;100875.92;2242095;78;21001;-73
2022/06/03 03:21:24;;;;;;;9.00;5.72;;;;;;;6.88;71.86;100877.13;2245765;78;21018;-75
2022/06/03 03:24:55;;;;;;;11.45;6.50;;;;;;;6.96;71.47;100868.94;2241689;78;21061;-74
2022/06/03 03:28:18;;;;;;;11.20;6.10;;;;;;;7.20;71.95;100874.48;2179209;79;21116;-73
2022/06/03 03:32:00;;;;;;;8.90;6.28;;;;;;;7.68;71.68;100867.87;2185324;78;21066;-72
2022/06/03 03:35:26;;;;;;;15.98;5.58;;;;;;;8.12;71.45;100875.14;2237047;78;20963;-75
2022/06/03 03:39:09;;;;;;;12.78;6.72;;;;;;;8.65;71.08;100878.91;2240970;78;21375;-75
2022/06/03 03:42:39;;;;;;;13.95;7.78;;;;;;;9.09;70.78;100877.55;2248420;78;20981;-73
2022/06/03 03:46:29;;;;;;;10.65;6.85;;;;;;;9.69;70.68;100884.03;2246330;78;21025;-73
2022/06/03 03:50:28;;;;;;;10.10;6.95;;;;;;;10.39;70.23;100883.67;2246117;78;20981;-73
2022/06/03 03:53:59;;;;;;;12.35;7.05;;;;;;;11.17;69.69;100875.56;2239533;78;20923;-73
2022/06/03 03:57:37;;;;;;;10.98;7.75;;;;;;;11.97;68.70;100887.52;2236940;77;21608;-74
2022/06/03 04:00:53;;;;;;;10.23;7.20;;;;;;;12.50;67.77;100882.93;2241307;77;20935;-75
2022/06/03 04:04:45;;;;;;;9.58;6.80;;;;;;;12.99;67.12;100887.08;2238373;77;21584;-74
2022/06/03 04:08:10;;;;;;;7.22;6.22;;;;;;;13.50;66.76;100889.15;2194785;80;21065;-73
2022/06/03 04:12:05;;;;;;;8.58;6.55;;;;;;;14.02;65.89;100887.43;2212981;78;21036;-74
2022/06/03 04:15:43;;;;;;;8.33;6.03;;;;;;;14.40;65.36;100892.97;2240732;78;21022;-73
2022/06/03 04:19:17;;;;;;;8.78;6.58;;;;;;;15.06;64.67;100893.98;2251632;78;20971;-74
2022/06/03 04:22:57;;;;;;;8.80;6.08;;;;;;;15.54;63.73;100890.14;2247391;78;21020;-72
2022/06/03 04:26:22;;;;;;;9.30;6.83;;;;;;;15.97;63.21;100893.61;2248914;78;21005;-73
2022/06/03 04:29:53;;;;;;;8.18;6.45;;;;;;;16.56;62.76;100882.37;2204708;78;21044;-73
2022/06/03 04:33:30;;;;;;;;;;;;;;;17.13;62.00;100890.14;2245997;78;21024;-72
2022/06/03 04:37:16;;;;;;;9.40;6.62;;;;;;;17.47;60.52;100892.10;2247406;78;20207;-74
2022/06/03 04:41:00;;;;;;;7.22;6.45;;;;;;;17.74;60.15;100895.02;2250169;78;20942;-74
2022/06/03 04:44:32;;;;;;;8.63;6.92;;;;;;;17.88;59.39;100887.41;2249373;78;21427;-74
2022/06/03 04:48:07;;;;;;;7.92;6.08;;;;;;;18.20;59.16;100885.13;2252394;78;21020;-72
2022/06/03 04:52:06;;;;;;;8.65;6.85;;;;;;;18.68;58.46;100885.66;2247649;78;21065;-76
2022/06/03 04:55:48;;;;;;;9.58;7.80;;;;;;;18.96;57.45;100885.56;2245194;78;21333;-75
2022/06/03 04:59:10;;;;;;;10.48;7.15;;;;;;;19.29;56.67;100891.50;2244595;78;21032;-76
2022/06/03 05:02:38;;;;;;;9.53;7.78;;;;;;;19.39;56.01;100890.06;2247489;78;21081;-75
2022/06/03 05:06:01;;;;;;;8.88;7.97;;;;;;;19.57;55.63;100889.47;2249788;78;21001;-77
2022/06/03 05:09:45;;;;;;;8.20;7.40;;;;;;;19.82;55.57;100887.50;2248855;78;21006;-77
2022/06/03 05:13:18;;;;;;;8.80;7.28;;;;;;;19.95;54.74;100891.53;2251389;78;20985;-76
2022/06/03 05:16:52;;;;;;;8.98;6.97;;;;;;;20.03;54.78;100894.00;2254711;77;20959;-77
2022/06/03 05:20:09;;;;;;;12.30;7.60;;;;;;;20.41;54.09;100892.45;2259372;77;21012;-81
2022/06/03 05:23:37;;;;;;;7.83;6.42;;;;;;;20.75;53.94;100895.34;2259231;77;20954;-78
2022/06/03 05:26:47;;;;;;;8.03;7.22;;;;;;;20.85;53.54;100893.02;2252651;77;21542;-77
2022/06/03 05:30:18;;;;;;;9.18;7.00;;;;;;;21.16;53.22;100897.60;2253628;77;21027;-77
2022/06/03 05:33:58;;;;;;;7.40;6.08;;;;;;;21.12;52.39;100892.84;2259362;77;21004;-76
2022/06/03 05:37:14;;;;;;;7.62;5.83;;;;;;;21.37;52.59;100900.52;2255720;77;21024;-75
2022/06/03 05:40:43;;;;;;;7.62;6.22;;;;;;;21.67;51.52;100902.02;2197250;77;21438;-77
2022/06/03 05:44:08;;;;;;;10.55;6.80;;;;;;;21.89;51.08;100905.68;2253251;77;20986;-76
2022/06/03 05:47:26;;;;;;;6.22;5.60;;;;;;;22.11;50.92;100900.16;2253487;77;21060;-74
2022/06/03 05:51:00;;;;;;;9.28;6.33;;;;;;;22.58;50.51;100899.14;2260984;77;20953;-75
2022/06/03 05:54:16;;;;;;;6.72;5.85;;;;;;;22.95;49.88;100894.19;2256409;77;21531;-76
2022/06/03 05:57:23;;;;;;;5.72;5.22;;;;;;;22.95;48.84;100894.19;2256849;77;20965;-76
2022/06/03 06:00:51;;;;;;;7.87;5.67;;;;;;;23.16;48.09;100890.97;2256435;77;21006;-75
2022/06/03 06:04:38;;;;;;;6.37;4.75;;;;;;;23.18;48.04;100889.41;2257923;77;21060;-80
2022/06/03 06:08:06;;;;;;;7.20;5.95;;;;;;;23.33;47.47;100888.42;2256228;77;21001;-75
2022/06/03 06:11:30;;;;;;;4.95;4.25;;;;;;;23.17;46.81;100889.94;2253449;77;20934;-76
2022/06/03 06:14:56;;;;;;;7.75;4.85;;;;;;;23.26;46.90;100888.54;2257988;77;20978;-75
2022/06/03 06:18:17;;;;;;;4.87;3.98;;;;;;;23.46;46.33;100881.98;2257582;77;21025;-75
2022/06/03 06:22:16;;;;;;;5.87;4.50;;;;;;;23.56;46.11;100884.92;2251818;77;21096;-75
2022/06/03 06:25:39;;;;;;;5.30;3.47;;;;;;;23.83;45.74;100887.22;2254938;77;20989;-75
2022/06/03 06:29:29;;;;;;;5.12;3.60;;;;;;;23.97;44.52;100885.91;2257587;77;21667;-76
2022/06/03 06:32:45;;;;;;;3.02;2.80;;;;;;;24.05;44.11;100886.91;2250800;77;21021;-82
2022/06/03 06:36:07;;;;;;;3.25;2.60;;;;;;;24.13;43.13;100879.77;2246167;77;21032;-76
2022/06/03 06:39:31;;;;;;;2.95;2.65;;;;;;;24.00;42.47;100885.44;2244844;77;21032;-82
2022/06/03 06:42:47;;;;;;;3.37;2.60;;;;;;;23.79;42.34;100886.02;2261098;77;22600;-75
2022/06/03 06:46:06;;;;;;;2.05;1.62;;;;;;;23.60;39.92;100884.77;2258351;77;20962;-75
2022/06/03 06:49:28;;;;;;;1.77;1.60;;;;;;;23.58;41.29;100881.99;2254924;77;21043;-75
2022/06/03 06:52:50;;;;;;;3.95;1.57;;;;;;;23.47;39.21;100879.56;2259429;77;20930;-76
2022/06/03 06:56:39;;;;;;;4.97;1.90;;;;;;;22.89;39.56;100881.55;2252013;77;20974;-77
2022/06/03 06:59:49;;;;;;;3.58;1.47;;;;;;;22.63;38.65;100876.80;2264837;77;20996;-75
2022/06/03 07:03:12;;;;;;;;;;;;;;;22.48;38.80;100871.80;2257315;77;21064;-75
2022/06/03 07:06:37;;;;;;;3.37;1.62;;;;;;;22.51;39.49;100879.98;2256665;77;20414;-76
2022/06/03 07:09:44;;;;;;;3.55;1.92;;;;;;;22.63;39.60;100878.16;2253244;77;20990;-75
2022/06/03 07:13:09;;;;;;;3.52;1.98;;;;;;;22.75;39.16;100872.79;2260223;77;20947;-76
2022/06/03 07:20:42;;;;;;;2.50;2.30;;;;;;;22.82;39.13;100869.48;2246930;78;20967;-76
2022/06/03 07:23:58;;;;;;;3.67;2.47;;;;;;;22.54;37.97;100870.06;2245816;77;21556;-75
2022/06/03 07:27:05;;;;;;;4.45;2.55;;;;;;;22.30;37.60;100863.69;2245854;78;21013;-76
2022/06/03 07:30:28;;;;;;;6.17;1.90;;;;;;;22.36;38.59;100864.16;2250794;78;21033;-80
2022/06/03 07:33:35;;;;;;;2.33;1.77;;;;;;;22.68;38.69;100871.54;2238804;78;21382;-76
2022/06/03 07:36:51;;;;;;;3.05;2.10;;;;;;;22.92;38.97;100864.35;2249238;78;21020;-82
2022/06/03 07:40:18;;;;;;;10.28;2.42;;;;;;;22.99;38.20;100863.74;2246662;78;21056;-80
2022/06/03 07:43:25;;;;;;;2.75;1.82;;;;;;;23.25;38.24;100850.32;2248684;77;21108;-76
2022/06/03 07:46:52;;;;;;;2.30;2.05;;;;;;;23.32;37.25;100850.77;2237289;78;20994;-76
2022/06/03 07:50:00;;;;;;;2.30;2.10;;;;;;;23.14;36.47;100847.06;2245912;78;21334;-76
2022/06/03 07:53:13;;;;;;;2.98;2.22;;;;;;;22.90;37.23;100846.16;2248443;78;20998;-81
2022/06/03 07:56:28;;;;;;;3.05;2.20;;;;;;;22.96;37.15;100839.03;2244345;78;20974;-75
2022/06/03 07:59:37;;;;;;;3.62;2.30;;;;;;;22.84;37.70;100845.73;2228427;78;21019;-75
2022/06/03 08:02:38;;;;;;;4.90;2.58;;;;;;;23.04;38.24;100842.23;2246034;78;20986;-75
2022/06/03 08:05:46;;;;;;;4.60;2.40;;;;;;;23.21;37.47;100839.67;2247259;78;21280;-74
2022/06/03 08:12:18;;;;;;;2.95;2.00;;;;;;;23.37;36.82;100835.47;2240749;78;21009;-80
2022/06/03 08:15:30;;;;;;;3.08;2.42;;;;;;;23.61;37.27;100840.35;2238845;78;20971;-75
2022/06/03 08:18:42;;;;;;;3.92;2.20;;;;;;;23.85;37.27;100840.36;2243926;78;20907;-76
2022/06/03 08:21:59;;;;;;;3.25;2.58;;;;;;;23.91;37.24;100836.73;2240091;78;21488;-75
2022/06/03 08:25:01;;;;;;;3.40;2.40;;;;;;;23.88;36.86;100835.31;2243497;78;20986;-76
2022/06/03 08:28:06;;;;;;;2.60;2.27;;;;;;;23.85;36.60;100826.31;2240882;78;21077;-75
2022/06/03 08:31:08;;;;;;;4.30;2.25;;;;;;;24.33;37.41;100817.55;2244803;78;21041;-75
2022/06/03 08:34:15;;;;;;;3.62;2.47;;;;;;;24.79;36.18;100818.43;2247579;78;21004;-77
2022/06/03 08:37:24;;;;;;;3.42;2.15;;;;;;;24.62;36.64;100810.80;2245392;78;21053;-74
2022/06/03 08:40:48;;;;;;;3.45;2.70;;;;;;;24.49;36.56;100819.50;2244308;78;21615;-76
2022/06/03 08:44:21;;;;;;;4.22;2.50;;;;;;;24.67;37.25;100821.75;2239346;78;21014;-74
2022/06/03 08:47:41;;;;;;;5.97;2.65;;;;;;;24.95;35.89;100811.39;2244524;78;20954;-75
2022/06/03 08:50:55;;;;;;;;;;;;;;;24.96;37.06;100813.84;2247928;78;20992;-74
2022/06/03 08:54:08;;;;;;;5.28;2.70;;;;;;;25.09;35.56;100822.22;2245054;78;20159;-74
2022/06/03 08:57:24;;;;;;;7.37;2.50;;;;;;;24.80;36.26;100816.00;2246809;78;21006;-76
2022/06/03 09:00:36;;;;;;;6.78;3.00;;;;;;;24.54;36.30;100816.89;2240232;78;20957;-75
2022/06/03 09:03:49;;;;;;;3.12;2.62;;;;;;;24.66;36.09;100807.33;2245284;78;21053;-75
2022/06/03 09:07:30;;;;;;;3.22;2.42;;;;;;;24.92;36.73;100804.56;2241819;78;21049;-76
2022/06/03 09:10:49;;;;;;;5.30;2.50;;;;;;;25.09;35.20;100803.72;2244963;78;21013;-75
2022/06/03 09:14:11;;;;;;;4.70;2.58;;;;;;;24.75;36.40;100804.54;2235251;78;20986;-74
2022/06/03 09:17:54;;;;;;;4.30;2.83;;;;;;;24.68;35.90;100800.32;2247086;77;21037;-80
2022/06/03 09:21:03;;;;;;;4.37;2.40;;;;;;;24.67;36.21;100799.50;2233707;77;21020;-79
2022/06/03 09:24:15;;;;;;;4.15;2.65;;;;;;;24.70;36.06;100806.34;2250961;77;21040;-75
2022/06/03 09:27:17;;;;;;;3.80;2.50;;;;;;;24.64;36.10;100801.86;2245285;77;21025;-75
2022/06/03 09:30:31;;;;;;;5.33;2.35;;;;;;;24.67;35.81;100800.05;2250261;77;21001;-75
2022/06/03 09:33:34;;;;;;;3.70;2.40;;;;;;;24.79;36.19;100800.25;2252739;77;20954;-74
2022/06/03 09:36:37;;;;;;;4.05;2.37;;;;;;;24.94;35.31;100805.66;2250368;77;20997;-75
2022/06/03 09:39:41;;;;;;;3.83;2.45;;;;;;;24.88;35.96;100799.31;2255927;77;20943;-75
2022/06/03 09:42:47;;;;;;;4.30;2.40;;;;;;;25.20;35.19;100802.85;2248942;77;20951;-74
2022/06/03 09:45:56;;;;;;;2.77;2.05;;;;;;;25.18;35.21;100803.11;2249283;77;21052;-75
2022/06/03 09:48:59;;;;;;;3.08;2.33;;;;;;;25.22;35.76;100801.54;2247597;77;21565;-77
2022/06/03 09:52:08;;;;;;;4.47;2.08;;;;;;;25.55;35.88;100801.23;2221754;77;20985;-74
2022/06/03 09:55:30;;;;;;;6.47;2.15;;;;;;;25.69;35.29;100794.91;2254704;77;21037;-74
2022/06/03 09:58:34;;;;;;;4.92;1.98;;;;;;;25.68;35.40;100797.34;2245732;77;20953;-74
2022/06/03 10:01:37;;;;;;;2.02;1.80;;;;;;;25.62;34.38;100790.17;2255791;77;21040;-75
2022/06/03 10:04:44;;;;;;;1.77;1.60;;;;;;;25.35;33.28;100784.09;2252838;77;20997;-75
2022/06/03 10:07:49;;;;;;;1.80;1.50;;;;;;;25.35;33.16;100788.17;2249448;77;20934;-74
2022/06/03 10:14:13;;;;;;;4.45;2.25;;;;;;;25.23;33.02;100777.95;2246646;77;21037;-73
2022/06/03 10:17:15;;;;;;;4.58;2.00;;;;;;;25.31;34.19;100778.04;2259881;77;21516;-75
2022/06/03 10:20:19;;;;;;;2.27;1.67;;;;;;;25.32;34.15;100774.27;2252721;77;21021;-75
2022/06/03 10:23:27;;;;;;;3.05;1.75;;;;;;;25.38;33.88;100765.94;2258532;77;22209;-74
2022/06/03 10:26:49;;;;;;;2.25;1.75;;;;;;;25.60;34.17;100767.89;2259148;77;21583;-74
2022/06/03 10:29:51;;;;;;;2.67;1.87;;;;;;;26.19;34.26;100760.50;2255753;77;21006;-78
2022/06/03 10:32:53;;;;;;;3.42;2.25;;;;;;;26.11;32.50;100761.77;2256191;77;21535;-76
2022/06/03 10:35:58;;;;;;;1.80;1.70;;;;;;;25.65;33.74;100757.06;2256376;77;21005;-75
2022/06/03 10:39:02;;;;;;;2.02;1.80;;;;;;;25.43;33.28;100760.59;2256322;77;20985;-74
2022/06/03 10:42:05;;;;;;;2.77;1.50;;;;;;;25.45;33.53;100767.96;2256333;77;21051;-74
2022/06/03 10:45:09;;;;;;;4.33;1.95;;;;;;;25.71;33.29;100758.80;2258469;77;21461;-80
2022/06/03 10:48:29;;;;;;;1.70;1.60;;;;;;;25.58;33.18;100760.52;2258988;77;21393;-73
2022/06/03 11:01:46;;;;;;;2.62;1.82;;;;;;;25.30;32.56;100752.78;2259020;77;21525;-80
2022/06/03 11:04:48;;;;;;;2.80;1.60;;;;;;;25.37;32.72;100743.94;2256379;77;21005;-75
2022/06/03 11:08:04;;;;;;;1.55;1.45;;;;;;;25.86;33.36;100731.02;2260406;77;21307;-75
2022/06/03 11:11:06;;;;;;;2.22;1.57;;;;;;;26.29;32.86;100736.92;2253665;77;21001;-75
2022/06/03 11:14:32;;;;;;;2.75;1.70;;;;;;;26.17;31.99;100730.83;2262358;77;22189;-76
2022/06/03 11:17:37;;;;;;;3.52;1.70;;;;;;;26.27;32.14;100730.09;2257214;77;21085;-75
2022/06/03 11:20:40;;;;;;;5.03;2.10;;;;;;;25.86;31.95;100728.30;2221844;77;20989;-75
2022/06/03 11:23:44;;;;;;;2.75;1.42;;;;;;;25.72;32.30;100714.23;2252606;77;21029;-75
2022/06/03 11:26:47;;;;;;;2.37;1.57;;;;;;;25.99;32.06;100713.48;2256167;77;21504;-75
2022/06/03 11:29:52;;;;;;;3.15;1.60;;;;;;;25.91;31.99;100707.43;2257664;77;20965;-76
2022/06/03 11:33:08;;;;;;;3.00;1.60;;;;;;;25.75;31.97;100706.11;2257658;77;20942;-75
2022/06/03 11:36:45;;;;;;;1.55;1.45;;;;;;;25.56;32.22;100705.59;2258079;77;21025;-75
2022/06/03 11:39:57;;;;;;;2.80;1.65;;;;;;;25.47;31.21;100700.59;2256821;77;20950;-75
2022/06/03 11:43:15;;;;;;;1.50;1.40;;;;;;;25.67;32.46;100693.23;2253316;77;20959;-75
2022/06/03 11:46:35;;;;;;;2.05;1.57;;;;;;;25.79;32.44;100693.13;2256776;77;21493;-76
2022/06/03 11:49:37;;;;;;;2.98;1.72;;;;;;;25.69;32.54;100698.44;2256885;77;21076;-75
2022/06/03 11:52:43;;;;;;;2.20;1.45;;;;;;;25.74;32.59;100684.09;2259253;77;21028;-81
2022/06/03 11:55:46;;;;;;;2.98;1.90;;;;;;;25.95;32.23;100675.11;2256788;77;21070;-76
2022/06/03 11:59:05;;;;;;;2.62;1.90;;;;;;;26.16;32.66;100673.45;2255393;77;21005;-81
2022/06/03 12:02:38;;;;;;;3.00;1.50;;;;;;;26.23;32.60;100671.87;2254949;77;21056;-76
2022/06/03 12:05:56;;;;;;;2.33;1.80;;;;;;;25.97;31.97;100670.25;2257896;77;21042;-75
2022/06/03 12:09:23;;;;;;;1.67;1.57;;;;;;;25.96;31.08;100670.48;2257352;77;21500;-80
2022/06/03 12:16:09;;;;;;;2.10;1.85;;;;;;;26.07;31.48;100660.00;2257881;77;21044;-76
2022/06/03 12:19:13;;;;;;;2.15;1.75;;;;;;;26.18;32.18;100652.77;2252573;77;20926;-79
2022/06/03 12:22:31;;;;;;;3.62;1.37;;;;;;;26.27;31.91;100645.78;2243664;77;20969;-84
2022/06/03 12:25:38;;;;;;;4.65;2.10;;;;;;;26.23;31.12;100638.69;2253564;77;21608;-76
2022/06/03 12:28:49;;;;;;;2.20;2.00;;;;;;;26.05;32.32;100638.53;2256435;77;21512;-76
2022/06/03 12:31:50;;;;;;;7.08;2.05;;;;;;;25.96;31.73;100640.08;2255246;77;20973;-80
2022/06/03 12:34:52;;;;;;;3.05;1.90;;;;;;;25.87;31.96;100638.33;2260407;77;21068;-78
2022/06/03 12:38:24;;;;;;;2.10;1.85;;;;;;;25.98;31.89;100628.92;2258980;77;21500;-80
2022/06/03 12:41:49;;;;;;;3.33;1.70;;;;;;;26.11;32.36;100632.05;2259850;77;21004;-78
2022/06/03 12:45:05;;;;;;;2.98;1.60;;;;;;;26.32;33.06;100627.61;2262518;77;21012;-80
2022/06/03 12:48:40;;;;;;;3.17;1.42;;;;;;;26.39;31.53;100618.70;2220994;77;21041;-79
2022/06/03 12:52:01;;;;;;;2.60;1.72;;;;;;;26.01;31.24;100613.45;2258669;77;21004;-77
2022/06/03 12:55:10;;;;;;;4.95;1.80;;;;;;;25.50;31.41;100609.08;2203851;77;21001;-78
2022/06/03 12:58:51;;;;;;;2.90;1.60;;;;;;;24.92;32.02;100601.00;2230779;77;21044;-79
2022/06/03 13:02:18;;;;;;;4.20;2.00;;;;;;;24.86;32.94;100591.66;2256680;77;21599;-82
2022/06/03 13:05:43;;;;;;;4.08;2.15;;;;;;;24.90;32.40;100590.91;2258555;77;21539;-78
2022/06/03 13:12:30;;;;;;;2.30;1.77;;;;;;;24.94;32.37;100582.55;2227446;77;20974;-78
2022/06/03 13:15:41;;;;;;;2.45;1.60;;;;;;;25.30;33.41;100581.69;2248286;77;21001;-78
2022/06/03 13:18:50;;;;;;;3.10;1.77;;;;;;;25.46;32.46;100580.80;2247702;77;21049;-77
2022/06/03 13:22:02;;;;;;;1.67;1.57;;;;;;;25.37;32.93;100580.97;2223549;78;20994;-80
2022/06/03 13:25:22;;;;;;;2.17;1.85;;;;;;;25.39;33.26;100573.37;2238602;78;21674;-81
2022/06/03 13:28:37;;;;;;;2.53;2.10;;;;;;;25.34;32.67;100565.70;2241296;77;21065;-79
2022/06/03 13:31:53;;;;;;;4.47;1.92;;;;;;;25.36;32.87;100564.38;2237560;78;21009;-78
2022/06/03 13:35:17;;;;;;;2.47;1.70;;;;;;;25.25;32.50;100565.33;2239890;78;21022;-79
2022/06/03 13:38:28;;;;;;;2.67;2.02;;;;;;;25.14;32.61;100556.73;2231902;78;20927;-79
2022/06/03 13:45:15;;;;;;;2.05;1.60;;;;;;;25.24;32.49;100542.78;2161822;78;21006;-83
2022/06/03 13:48:38;;;;;;;2.47;1.82;;;;;;;25.48;32.82;100540.62;2232889;78;21013;-80
2022/06/03 13:51:53;;;;;;;2.65;1.82;;;;;;;25.52;32.07;100536.04;2249931;78;20988;-81
2022/06/03 13:55:10;;;;;;;3.22;1.80;;;;;;;25.25;32.11;100529.48;2245239;78;21010;-78
2022/06/03 13:58:34;;;;;;;2.85;1.95;;;;;;;25.16;32.43;100522.05;2239655;78;21011;-79
2022/06/03 14:01:46;;;;;;;3.27;1.75;;;;;;;24.96;32.55;100516.62;2248414;78;20988;-78
2022/06/03 14:04:59;;;;;;;2.92;1.75;;;;;;;24.91;32.88;100517.91;2203778;78;21096;-81
2022/06/03 14:08:33;;;;;;;2.20;1.92;;;;;;;24.93;33.01;100513.06;2237966;78;21033;-80
2022/06/03 14:11:40;;;;;;;3.27;2.02;;;;;;;25.02;32.75;100506.11;2231591;78;21033;-78
2022/06/03 14:15:09;;;;;;;4.95;2.25;;;;;;;25.20;33.10;100508.23;2247456;78;21561;-88
2022/06/03 14:18:10;;;;;;;4.30;2.08;;;;;;;25.26;33.02;100511.32;2246526;77;20995;-80
2022/06/03 14:21:16;;;;;;;2.42;1.90;;;;;;;25.31;34.26;100507.82;2248620;77;21033;-79
2022/06/03 14:24:38;;;;;;;3.05;2.00;;;;;;;25.25;34.17;100498.80;2255757;77;21004;-81
2022/06/03 14:28:13;;;;;;;3.15;2.05;;;;;;;25.11;33.99;100500.23;2256022;77;21543;-81
2022/06/03 14:31:52;;;;;;;2.62;1.90;;;;;;;24.99;34.80;100506.61;2253738;77;20989;-77
2022/06/03 14:35:17;;;;;;;1.92;1.70;;;;;;;24.92;34.74;100504.64;2242237;77;21050;-79
2022/06/03 14:38:39;;;;;;;2.42;1.87;;;;;;;24.81;34.68;100502.88;2250350;77;21017;-80
2022/06/03 14:41:45;;;;;;;2.60;2.22;;;;;;;24.79;34.48;100494.97;2248564;77;21558;-79
2022/06/03 14:44:47;;;;;;;2.70;1.92;;;;;;;24.74;34.58;100500.33;2252241;77;21071;-80
2022/06/03 14:47:56;;;;;;;3.25;2.17;;;;;;;24.74;35.70;100503.04;2251815;77;21521;-81
2022/06/03 14:51:06;;;;;;;3.42;1.70;;;;;;;24.67;34.34;100494.82;2254955;77;20997;-77
2022/06/03 14:54:15;;;;;;;2.98;1.75;;;;;;;24.60;35.82;100490.91;2249501;77;21012;-74
2022/06/03 14:57:24;;;;;;;2.20;1.80;;;;;;;24.53;35.05;100491.64;2250506;77;20954;-78
2022/06/03 15:00:54;;;;;;;2.22;1.70;;;;;;;24.47;35.29;100491.27;2254581;77;20982;-83
2022/06/03 15:04:08;;;;;;;2.35;1.70;;;;;;;24.35;35.46;100482.66;2254322;77;21053;-84
2022/06/03 15:07:29;;;;;;;3.72;2.08;;;;;;;24.32;35.58;100481.81;2251961;77;21508;-84
2022/06/03 15:10:31;;;;;;;2.58;1.90;;;;;;;24.26;35.91;100476.57;2253065;77;21045;-84
2022/06/03 15:13:34;;;;;;;2.02;1.80;;;;;;;24.16;35.62;100467.77;2251883;77;21002;-85
2022/06/03 15:16:51;;;;;;;3.90;1.87;;;;;;;24.09;36.23;100453.55;2247240;77;21010;-81
2022/06/03 15:19:58;;;;;;;2.75;2.00;;;;;;;24.01;35.65;100466.97;2253820;77;21002;-84
2022/06/03 15:23:00;;;;;;;4.33;1.85;;;;;;;23.89;35.73;100467.06;2253346;77;20998;-83
2022/06/03 15:26:04;;;;;;;3.35;2.02;;;;;;;23.78;36.18;100470.67;2249966;77;20918;-82
2022/06/03 15:29:20;;;;;;;2.55;2.02;;;;;;;23.77;36.70;100473.64;2245460;77;20935;-81
2022/06/03 15:32:23;;;;;;;1.80;1.70;;;;;;;23.81;36.14;100471.53;2248907;77;21097;-85
2022/06/03 15:35:30;;;;;;;3.08;1.70;;;;;;;23.83;36.79;100473.47;2250257;77;20983;-85
2022/06/03 15:38:36;;;;;;;1.90;1.80;;;;;;;23.83;36.74;100469.41;2259637;77;20923;-86
2022/06/03 15:41:45;;;;;;;3.08;2.42;;;;;;;23.85;36.67;100467.80;2254708;77;21048;-85
2022/06/03 15:44:46;;;;;;;2.67;1.90;;;;;;;23.79;36.66;100460.11;2252267;77;21107;-86
2022/06/03 15:47:48;;;;;;;2.75;2.00;;;;;;;23.73;37.15;100459.75;2240929;77;20970;-85
2022/06/03 15:51:06;;;;;;;5.30;2.02;;;;;;;23.73;37.02;100461.64;2244795;77;21052;-84
2022/06/03 15:54:09;;;;;;;4.45;2.50;;;;;;;23.71;37.21;100461.36;2252800;77;20960;-84
2022/06/03 15:57:28;;;;;;;1.95;1.70;;;;;;;23.69;36.60;100462.10;2246490;77;21009;-85
2022/06/03 16:00:56;;;;;;;2.98;1.80;;;;;;;23.72;37.09;100455.41;2245743;77;21624;-86
2022/06/03 16:04:24;;;;;;;4.60;1.60;;;;;;;23.78;36.92;100453.60;2255466;77;21017;-86
2022/06/03 16:08:05;;;;;;;2.55;2.15;;;;;;;23.82;37.59;100454.23;2249094;77;21020;-87